KLWT

Lewistown Municipal Airport

Lewistown, Montana, USA
METAR KLWT 182254Z AUTO 00000KT 10SM SCT095 BKN110 21/12 A3015 RMK AO2 SLP177 T02110117
Observed Flight Rules
Aug-18 @ 22:54 UTC (50 minutes ago) Visual Flight Rules
Visibility Clouds
10 miles
  • Scattered at 9,500' AGL
  • Broken at 11,000' AGL
Temperatures Readings
Current 21°C / 70°F
Dewpoint 12°C / 54°F
Humidity 57%
Altimeter 30.15" Hg
Pressure 1017.7 hPa
Elevation 1270
METAR KLWT 182254Z AUTO 00000KT 10SM SCT095 BKN110 21/12 A3015 RMK AO2 SLP177 T02110117
Observed Flight Rules
Aug-18 @ 22:54 UTC
(50 minutes ago)
VFR
Clouds
  • Scattered at 9,500' AGL
  • Broken at 11,000' AGL
Temperature Dewpoint
21°C / 70°F 12°C / 54°F
Humidity Altimeter Pressure
57% 30.15" Hg 1017.7 hPa